sensor_id;sensor_type;location;lat;lon;timestamp;P1;durP1;ratioP1;P2;durP2;ratioP2
1677;SDS011;6034;46.864;15.216;2023-05-19T05:02:56;10.63;;;7.70;;
1677;SDS011;6034;46.864;15.216;2023-05-19T05:05:23;10.55;;;8.05;;
1677;SDS011;6034;46.864;15.216;2023-05-19T05:07:50;11.77;;;8.00;;
1677;SDS011;6034;46.864;15.216;2023-05-19T05:10:19;9.48;;;7.68;;
1677;SDS011;6034;46.864;15.216;2023-05-19T05:12:46;8.90;;;7.50;;
1677;SDS011;6034;46.864;15.216;2023-05-19T05:15:14;11.02;;;7.82;;
1677;SDS011;6034;46.864;15.216;2023-05-19T05:17:44;13.57;;;8.32;;
1677;SDS011;6034;46.864;15.216;2023-05-19T05:20:12;12.00;;;8.30;;
1677;SDS011;6034;46.864;15.216;2023-05-19T05:22:40;9.05;;;7.85;;
1677;SDS011;6034;46.864;15.216;2023-05-19T05:25:09;9.25;;;8.00;;
1677;SDS011;6034;46.864;15.216;2023-05-19T05:27:37;10.10;;;7.80;;
1677;SDS011;6034;46.864;15.216;2023-05-19T05:30:05;9.27;;;7.30;;
1677;SDS011;6034;46.864;15.216;2023-05-19T05:32:33;10.18;;;7.65;;
1677;SDS011;6034;46.864;15.216;2023-05-19T05:35:02;12.45;;;9.02;;
1677;SDS011;6034;46.864;15.216;2023-05-19T05:37:29;12.07;;;9.00;;
1677;SDS011;6034;46.864;15.216;2023-05-19T05:39:57;19.85;;;14.57;;
1677;SDS011;6034;46.864;15.216;2023-05-19T05:42:24;19.25;;;16.98;;
1677;SDS011;6034;46.864;15.216;2023-05-19T05:44:51;19.38;;;17.40;;
1677;SDS011;6034;46.864;15.216;2023-05-19T05:47:19;11.07;;;9.60;;
1677;SDS011;6034;46.864;15.216;2023-05-19T05:49:47;11.25;;;10.00;;
1677;SDS011;6034;46.864;15.216;2023-05-19T05:52:16;10.60;;;9.40;;
1677;SDS011;6034;46.864;15.216;2023-05-19T05:54:47;11.10;;;7.93;;
1677;SDS011;6034;46.864;15.216;2023-05-19T05:57:15;10.20;;;8.75;;
1677;SDS011;6034;46.864;15.216;2023-05-19T05:59:43;19.95;;;8.32;;
1677;SDS011;6034;46.864;15.216;2023-05-19T06:02:11;9.43;;;8.20;;
1677;SDS011;6034;46.864;15.216;2023-05-19T06:04:38;13.25;;;8.85;;
1677;SDS011;6034;46.864;15.216;2023-05-19T06:07:06;10.48;;;8.65;;
1677;SDS011;6034;46.864;15.216;2023-05-19T06:09:34;13.15;;;8.43;;
1677;SDS011;6034;46.864;15.216;2023-05-19T06:12:02;11.98;;;9.98;;
1677;SDS011;6034;46.864;15.216;2023-05-19T06:14:30;12.32;;;9.13;;
1677;SDS011;6034;46.864;15.216;2023-05-19T06:16:57;10.38;;;8.57;;
1677;SDS011;6034;46.864;15.216;2023-05-19T06:19:24;15.00;;;9.23;;
1677;SDS011;6034;46.864;15.216;2023-05-19T06:21:52;13.55;;;8.85;;
1677;SDS011;6034;46.864;15.216;2023-05-19T06:24:19;10.82;;;9.00;;
1677;SDS011;6034;46.864;15.216;2023-05-19T06:26:48;13.13;;;9.20;;
1677;SDS011;6034;46.864;15.216;2023-05-19T06:29:15;10.48;;;8.95;;
1677;SDS011;6034;46.864;15.216;2023-05-19T06:31:42;12.07;;;8.55;;
1677;SDS011;6034;46.864;15.216;2023-05-19T06:34:10;12.60;;;8.93;;
1677;SDS011;6034;46.864;15.216;2023-05-19T06:36:41;11.02;;;7.72;;
1677;SDS011;6034;46.864;15.216;2023-05-19T06:39:09;10.75;;;8.45;;
1677;SDS011;6034;46.864;15.216;2023-05-19T06:41:36;10.20;;;8.30;;
1677;SDS011;6034;46.864;15.216;2023-05-19T06:44:05;14.60;;;9.45;;
1677;SDS011;6034;46.864;15.216;2023-05-19T06:46:33;17.45;;;9.70;;
1677;SDS011;6034;46.864;15.216;2023-05-19T06:49:00;13.80;;;8.65;;
1677;SDS011;6034;46.864;15.216;2023-05-19T06:51:27;11.88;;;9.32;;
1677;SDS011;6034;46.864;15.216;2023-05-19T06:53:55;15.07;;;9.25;;
1677;SDS011;6034;46.864;15.216;2023-05-19T06:56:22;10.95;;;9.55;;
1677;SDS011;6034;46.864;15.216;2023-05-19T06:58:49;10.18;;;9.02;;
1677;SDS011;6034;46.864;15.216;2023-05-19T07:01:18;14.98;;;10.40;;
1677;SDS011;6034;46.864;15.216;2023-05-19T07:03:45;12.68;;;8.40;;
1677;SDS011;6034;46.864;15.216;2023-05-19T07:06:12;12.52;;;10.20;;
1677;SDS011;6034;46.864;15.216;2023-05-19T07:08:40;13.38;;;8.80;;
1677;SDS011;6034;46.864;15.216;2023-05-19T07:11:07;10.70;;;8.48;;
1677;SDS011;6034;46.864;15.216;2023-05-19T07:13:36;12.02;;;8.85;;
1677;SDS011;6034;46.864;15.216;2023-05-19T07:16:05;16.17;;;9.63;;
1677;SDS011;6034;46.864;15.216;2023-05-19T07:18:37;10.52;;;8.32;;
1677;SDS011;6034;46.864;15.216;2023-05-19T07:21:04;10.40;;;8.43;;
1677;SDS011;6034;46.864;15.216;2023-05-19T07:23:32;11.85;;;8.32;;
1677;SDS011;6034;46.864;15.216;2023-05-19T07:26:02;13.05;;;8.93;;
1677;SDS011;6034;46.864;15.216;2023-05-19T07:28:31;12.45;;;7.85;;
1677;SDS011;6034;46.864;15.216;2023-05-19T07:31:02;11.02;;;7.65;;
1677;SDS011;6034;46.864;15.216;2023-05-19T07:33:32;11.63;;;7.82;;
1677;SDS011;6034;46.864;15.216;2023-05-19T07:36:04;11.55;;;8.85;;
1677;SDS011;6034;46.864;15.216;2023-05-19T07:38:33;10.68;;;8.20;;
1677;SDS011;6034;46.864;15.216;2023-05-19T07:41:03;9.73;;;7.78;;
1677;SDS011;6034;46.864;15.216;2023-05-19T07:43:32;9.55;;;8.43;;
1677;SDS011;6034;46.864;15.216;2023-05-19T07:46:01;9.90;;;6.90;;
1677;SDS011;6034;46.864;15.216;2023-05-19T07:48:30;9.48;;;7.20;;
1677;SDS011;6034;46.864;15.216;2023-05-19T07:50:58;10.65;;;7.25;;
1677;SDS011;6034;46.864;15.216;2023-05-19T07:53:29;8.52;;;7.65;;
1677;SDS011;6034;46.864;15.216;2023-05-19T07:56:04;10.95;;;7.93;;
1677;SDS011;6034;46.864;15.216;2023-05-19T07:58:32;9.98;;;7.07;;
1677;SDS011;6034;46.864;15.216;2023-05-19T08:01:01;11.30;;;7.50;;
1677;SDS011;6034;46.864;15.216;2023-05-19T08:03:29;10.23;;;8.20;;
1677;SDS011;6034;46.864;15.216;2023-05-19T08:05:57;8.50;;;7.05;;
1677;SDS011;6034;46.864;15.216;2023-05-19T08:08:25;9.38;;;5.93;;
1677;SDS011;6034;46.864;15.216;2023-05-19T08:11:01;10.77;;;6.82;;
1677;SDS011;6034;46.864;15.216;2023-05-19T08:13:32;11.93;;;7.40;;
1677;SDS011;6034;46.864;15.216;2023-05-19T08:16:07;9.25;;;7.22;;
1677;SDS011;6034;46.864;15.216;2023-05-19T08:18:37;7.15;;;6.40;;
1677;SDS011;6034;46.864;15.216;2023-05-19T08:21:04;13.32;;;9.00;;
1677;SDS011;6034;46.864;15.216;2023-05-19T08:23:33;8.65;;;6.63;;
1677;SDS011;6034;46.864;15.216;2023-05-19T08:26:03;6.70;;;6.10;;
1677;SDS011;6034;46.864;15.216;2023-05-19T08:28:42;7.32;;;5.55;;
1677;SDS011;6034;46.864;15.216;2023-05-19T08:31:14;9.57;;;7.22;;
1677;SDS011;6034;46.864;15.216;2023-05-19T08:33:44;11.98;;;7.68;;
1677;SDS011;6034;46.864;15.216;2023-05-19T08:36:14;10.05;;;7.35;;
1677;SDS011;6034;46.864;15.216;2023-05-19T08:38:45;9.10;;;6.72;;
1677;SDS011;6034;46.864;15.216;2023-05-19T08:41:14;8.68;;;7.70;;
1677;SDS011;6034;46.864;15.216;2023-05-19T08:43:42;12.90;;;7.80;;
1677;SDS011;6034;46.864;15.216;2023-05-19T08:46:12;13.63;;;9.02;;
1677;SDS011;6034;46.864;15.216;2023-05-19T08:48:41;10.55;;;8.73;;
1677;SDS011;6034;46.864;15.216;2023-05-19T08:51:16;8.60;;;7.70;;
1677;SDS011;6034;46.864;15.216;2023-05-19T08:53:52;11.45;;;7.20;;
1677;SDS011;6034;46.864;15.216;2023-05-19T08:56:25;12.43;;;8.20;;
1677;SDS011;6034;46.864;15.216;2023-05-19T08:58:55;10.75;;;8.65;;
1677;SDS011;6034;46.864;15.216;2023-05-19T09:01:25;11.18;;;8.23;;
1677;SDS011;6034;46.864;15.216;2023-05-19T09:03:56;10.25;;;8.00;;
1677;SDS011;6034;46.864;15.216;2023-05-19T09:06:28;10.18;;;6.85;;
1677;SDS011;6034;46.864;15.216;2023-05-19T09:08:59;14.05;;;7.70;;
1677;SDS011;6034;46.864;15.216;2023-05-19T09:11:27;14.63;;;8.48;;
1677;SDS011;6034;46.864;15.216;2023-05-19T09:13:58;12.60;;;7.88;;
1677;SDS011;6034;46.864;15.216;2023-05-19T09:16:28;12.75;;;8.18;;
1677;SDS011;6034;46.864;15.216;2023-05-19T09:18:58;13.75;;;9.20;;
1677;SDS011;6034;46.864;15.216;2023-05-19T09:21:28;8.80;;;7.90;;
1677;SDS011;6034;46.864;15.216;2023-05-19T09:24:02;10.20;;;8.00;;
1677;SDS011;6034;46.864;15.216;2023-05-19T09:26:37;12.20;;;7.63;;
1677;SDS011;6034;46.864;15.216;2023-05-19T09:29:12;9.43;;;8.23;;
1677;SDS011;6034;46.864;15.216;2023-05-19T09:31:46;8.25;;;7.45;;
1677;SDS011;6034;46.864;15.216;2023-05-19T09:34:15;13.25;;;7.90;;
1677;SDS011;6034;46.864;15.216;2023-05-19T09:36:43;8.68;;;7.35;;
1677;SDS011;6034;46.864;15.216;2023-05-19T09:39:15;14.15;;;7.70;;
1677;SDS011;6034;46.864;15.216;2023-05-19T09:41:43;12.93;;;7.13;;
1677;SDS011;6034;46.864;15.216;2023-05-19T09:44:20;9.45;;;7.28;;
1677;SDS011;6034;46.864;15.216;2023-05-19T09:46:48;14.45;;;8.43;;
1677;SDS011;6034;46.864;15.216;2023-05-19T09:49:18;10.73;;;8.63;;
1677;SDS011;6034;46.864;15.216;2023-05-19T09:51:50;10.88;;;8.75;;
1677;SDS011;6034;46.864;15.216;2023-05-19T09:54:23;10.90;;;7.50;;
1677;SDS011;6034;46.864;15.216;2023-05-19T09:56:56;9.38;;;7.18;;
1677;SDS011;6034;46.864;15.216;2023-05-19T09:59:24;8.60;;;7.68;;
1677;SDS011;6034;46.864;15.216;2023-05-19T10:01:55;9.50;;;8.50;;
1677;SDS011;6034;46.864;15.216;2023-05-19T10:04:24;10.00;;;7.78;;
1677;SDS011;6034;46.864;15.216;2023-05-19T10:06:53;11.05;;;7.95;;
1677;SDS011;6034;46.864;15.216;2023-05-19T10:09:25;11.85;;;8.02;;
1677;SDS011;6034;46.864;15.216;2023-05-19T10:11:53;8.52;;;7.50;;
1677;SDS011;6034;46.864;15.216;2023-05-19T10:14:28;7.15;;;6.45;;
1677;SDS011;6034;46.864;15.216;2023-05-19T10:16:58;8.93;;;7.95;;
1677;SDS011;6034;46.864;15.216;2023-05-19T10:19:27;10.52;;;7.72;;
1677;SDS011;6034;46.864;15.216;2023-05-19T10:22:00;9.48;;;7.28;;
1677;SDS011;6034;46.864;15.216;2023-05-19T10:24:31;10.35;;;7.72;;
1677;SDS011;6034;46.864;15.216;2023-05-19T10:27:00;9.88;;;7.15;;
1677;SDS011;6034;46.864;15.216;2023-05-19T10:29:32;8.15;;;6.03;;
1677;SDS011;6034;46.864;15.216;2023-05-19T10:32:05;10.32;;;6.35;;
1677;SDS011;6034;46.864;15.216;2023-05-19T10:37:45;10.57;;;6.57;;
1677;SDS011;6034;46.864;15.216;2023-05-19T10:40:29;10.05;;;6.05;;
1677;SDS011;6034;46.864;15.216;2023-05-19T10:43:14;10.48;;;7.00;;
1677;SDS011;6034;46.864;15.216;2023-05-19T10:45:51;6.38;;;5.35;;
1677;SDS011;6034;46.864;15.216;2023-05-19T10:48:21;6.65;;;5.13;;
1677;SDS011;6034;46.864;15.216;2023-05-19T10:50:52;9.10;;;5.70;;
1677;SDS011;6034;46.864;15.216;2023-05-19T10:53:29;7.68;;;6.30;;
1677;SDS011;6034;46.864;15.216;2023-05-19T10:56:00;8.05;;;6.28;;
1677;SDS011;6034;46.864;15.216;2023-05-19T10:58:38;6.80;;;5.57;;
1677;SDS011;6034;46.864;15.216;2023-05-19T11:01:14;7.35;;;6.13;;
1677;SDS011;6034;46.864;15.216;2023-05-19T11:03:45;8.40;;;5.97;;
1677;SDS011;6034;46.864;15.216;2023-05-19T11:06:17;7.45;;;6.13;;
1677;SDS011;6034;46.864;15.216;2023-05-19T11:08:52;6.15;;;5.20;;
1677;SDS011;6034;46.864;15.216;2023-05-19T12:06:37;5.35;;;4.40;;
1677;SDS011;6034;46.864;15.216;2023-05-19T12:21:35;7.82;;;4.85;;
1677;SDS011;6034;46.864;15.216;2023-05-19T12:58:52;4.38;;;3.70;;
1677;SDS011;6034;46.864;15.216;2023-05-19T13:01:21;7.38;;;4.43;;
1677;SDS011;6034;46.864;15.216;2023-05-19T13:03:56;5.95;;;3.70;;
1677;SDS011;6034;46.864;15.216;2023-05-19T13:06:27;4.32;;;3.90;;
1677;SDS011;6034;46.864;15.216;2023-05-19T13:08:57;6.57;;;4.65;;
1677;SDS011;6034;46.864;15.216;2023-05-19T13:11:26;6.15;;;4.63;;
1677;SDS011;6034;46.864;15.216;2023-05-19T13:13:54;4.75;;;4.30;;
1677;SDS011;6034;46.864;15.216;2023-05-19T13:16:22;7.43;;;4.75;;
1677;SDS011;6034;46.864;15.216;2023-05-19T13:18:49;6.07;;;4.75;;
1677;SDS011;6034;46.864;15.216;2023-05-19T13:21:18;5.50;;;4.75;;
1677;SDS011;6034;46.864;15.216;2023-05-19T13:23:52;5.50;;;4.70;;
1677;SDS011;6034;46.864;15.216;2023-05-19T13:26:23;4.05;;;3.67;;
1677;SDS011;6034;46.864;15.216;2023-05-19T13:28:53;5.82;;;4.43;;
1677;SDS011;6034;46.864;15.216;2023-05-19T13:31:26;4.68;;;4.20;;
1677;SDS011;6034;46.864;15.216;2023-05-19T13:33:54;6.73;;;4.60;;
1677;SDS011;6034;46.864;15.216;2023-05-19T13:48:18;4.90;;;4.40;;
1677;SDS011;6034;46.864;15.216;2023-05-19T13:50:46;5.27;;;4.60;;
1677;SDS011;6034;46.864;15.216;2023-05-19T13:53:16;6.07;;;4.70;;
1677;SDS011;6034;46.864;15.216;2023-05-19T13:55:45;6.97;;;4.60;;
1677;SDS011;6034;46.864;15.216;2023-05-19T13:58:14;8.23;;;5.25;;
1677;SDS011;6034;46.864;15.216;2023-05-19T14:00:42;7.40;;;5.10;;
1677;SDS011;6034;46.864;15.216;2023-05-19T14:03:10;11.57;;;5.50;;
1677;SDS011;6034;46.864;15.216;2023-05-19T14:05:42;7.45;;;5.60;;
1677;SDS011;6034;46.864;15.216;2023-05-19T14:08:11;7.68;;;5.00;;
1677;SDS011;6034;46.864;15.216;2023-05-19T14:10:45;6.30;;;5.38;;
1677;SDS011;6034;46.864;15.216;2023-05-19T14:13:15;11.18;;;5.60;;
1677;SDS011;6034;46.864;15.216;2023-05-19T14:15:44;7.72;;;4.93;;
1677;SDS011;6034;46.864;15.216;2023-05-19T14:18:13;7.70;;;5.25;;
1677;SDS011;6034;46.864;15.216;2023-05-19T14:20:44;6.03;;;5.32;;
1677;SDS011;6034;46.864;15.216;2023-05-19T14:23:14;4.97;;;4.47;;
1677;SDS011;6034;46.864;15.216;2023-05-19T14:25:46;6.25;;;5.38;;
1677;SDS011;6034;46.864;15.216;2023-05-19T14:28:15;4.93;;;4.40;;
1677;SDS011;6034;46.864;15.216;2023-05-19T14:30:43;8.57;;;5.53;;
1677;SDS011;6034;46.864;15.216;2023-05-19T14:33:12;7.13;;;5.30;;
1677;SDS011;6034;46.864;15.216;2023-05-19T14:35:41;7.20;;;5.28;;
1677;SDS011;6034;46.864;15.216;2023-05-19T14:38:11;4.88;;;4.32;;
1677;SDS011;6034;46.864;15.216;2023-05-19T14:40:39;6.25;;;4.90;;
1677;SDS011;6034;46.864;15.216;2023-05-19T14:43:08;5.87;;;4.10;;
1677;SDS011;6034;46.864;15.216;2023-05-19T14:45:37;7.95;;;4.95;;
1677;SDS011;6034;46.864;15.216;2023-05-19T14:48:06;6.40;;;4.60;;
1677;SDS011;6034;46.864;15.216;2023-05-19T14:50:36;8.60;;;4.57;;
1677;SDS011;6034;46.864;15.216;2023-05-19T14:53:03;7.57;;;6.20;;
1677;SDS011;6034;46.864;15.216;2023-05-19T14:55:35;7.40;;;4.93;;
1677;SDS011;6034;46.864;15.216;2023-05-19T14:58:05;6.72;;;5.72;;
1677;SDS011;6034;46.864;15.216;2023-05-19T15:00:34;8.63;;;5.70;;
1677;SDS011;6034;46.864;15.216;2023-05-19T15:03:03;6.27;;;4.20;;
1677;SDS011;6034;46.864;15.216;2023-05-19T15:05:31;6.77;;;5.40;;
1677;SDS011;6034;46.864;15.216;2023-05-19T15:08:00;6.05;;;4.57;;
1677;SDS011;6034;46.864;15.216;2023-05-19T15:10:28;6.80;;;5.07;;
1677;SDS011;6034;46.864;15.216;2023-05-19T15:12:58;5.50;;;4.87;;
1677;SDS011;6034;46.864;15.216;2023-05-19T15:15:28;5.72;;;5.15;;
1677;SDS011;6034;46.864;15.216;2023-05-19T15:17:57;5.90;;;4.80;;
1677;SDS011;6034;46.864;15.216;2023-05-19T15:20:25;5.03;;;4.40;;
1677;SDS011;6034;46.864;15.216;2023-05-19T15:22:54;6.43;;;4.70;;
1677;SDS011;6034;46.864;15.216;2023-05-19T15:25:25;7.22;;;5.40;;
1677;SDS011;6034;46.864;15.216;2023-05-19T15:27:54;6.28;;;4.88;;
1677;SDS011;6034;46.864;15.216;2023-05-19T15:30:23;7.07;;;4.85;;
1677;SDS011;6034;46.864;15.216;2023-05-19T15:32:52;4.63;;;3.80;;
1677;SDS011;6034;46.864;15.216;2023-05-19T15:35:20;4.30;;;3.60;;
1677;SDS011;6034;46.864;15.216;2023-05-19T15:37:48;7.15;;;4.65;;
1677;SDS011;6034;46.864;15.216;2023-05-19T15:40:17;4.47;;;3.97;;
1677;SDS011;6034;46.864;15.216;2023-05-19T15:42:45;5.90;;;3.85;;
1677;SDS011;6034;46.864;15.216;2023-05-19T15:45:14;5.00;;;3.83;;
1677;SDS011;6034;46.864;15.216;2023-05-19T15:47:43;5.75;;;4.07;;
1677;SDS011;6034;46.864;15.216;2023-05-19T15:50:15;4.78;;;4.10;;
1677;SDS011;6034;46.864;15.216;2023-05-19T15:52:53;7.93;;;4.50;;
1677;SDS011;6034;46.864;15.216;2023-05-19T15:55:21;5.45;;;4.95;;
1677;SDS011;6034;46.864;15.216;2023-05-19T15:57:51;5.70;;;4.87;;
1677;SDS011;6034;46.864;15.216;2023-05-19T16:00:19;5.05;;;4.55;;
1677;SDS011;6034;46.864;15.216;2023-05-19T16:02:49;8.98;;;4.93;;
1677;SDS011;6034;46.864;15.216;2023-05-19T16:05:18;5.88;;;3.90;;
1677;SDS011;6034;46.864;15.216;2023-05-19T16:07:46;4.90;;;3.50;;
1677;SDS011;6034;46.864;15.216;2023-05-19T16:10:15;7.00;;;4.82;;
1677;SDS011;6034;46.864;15.216;2023-05-19T16:12:45;5.70;;;4.50;;
1677;SDS011;6034;46.864;15.216;2023-05-19T16:15:15;5.70;;;4.30;;
1677;SDS011;6034;46.864;15.216;2023-05-19T16:17:44;5.20;;;4.15;;
1677;SDS011;6034;46.864;15.216;2023-05-19T16:20:14;6.00;;;4.53;;
1677;SDS011;6034;46.864;15.216;2023-05-19T16:22:43;5.70;;;4.27;;
1677;SDS011;6034;46.864;15.216;2023-05-19T16:25:11;5.57;;;3.90;;
1677;SDS011;6034;46.864;15.216;2023-05-19T16:27:40;4.70;;;3.90;;
1677;SDS011;6034;46.864;15.216;2023-05-19T16:30:08;4.85;;;4.10;;
1677;SDS011;6034;46.864;15.216;2023-05-19T16:32:36;4.88;;;4.10;;
1677;SDS011;6034;46.864;15.216;2023-05-19T16:35:05;4.70;;;4.20;;
1677;SDS011;6034;46.864;15.216;2023-05-19T16:37:36;5.13;;;4.38;;
1677;SDS011;6034;46.864;15.216;2023-05-19T16:40:05;5.90;;;4.23;;
1677;SDS011;6034;46.864;15.216;2023-05-19T16:42:34;7.18;;;4.10;;
1677;SDS011;6034;46.864;15.216;2023-05-19T16:45:03;4.70;;;4.18;;
1677;SDS011;6034;46.864;15.216;2023-05-19T16:47:32;5.77;;;4.10;;
1677;SDS011;6034;46.864;15.216;2023-05-19T16:50:01;4.38;;;3.78;;
1677;SDS011;6034;46.864;15.216;2023-05-19T16:52:29;4.82;;;4.30;;
1677;SDS011;6034;46.864;15.216;2023-05-19T16:55:00;7.28;;;5.28;;
1677;SDS011;6034;46.864;15.216;2023-05-19T16:57:30;5.15;;;4.03;;
1677;SDS011;6034;46.864;15.216;2023-05-19T16:59:58;5.85;;;4.55;;
1677;SDS011;6034;46.864;15.216;2023-05-19T17:02:26;4.72;;;3.85;;
1677;SDS011;6034;46.864;15.216;2023-05-19T17:04:55;4.40;;;3.65;;
1677;SDS011;6034;46.864;15.216;2023-05-19T17:07:23;5.20;;;4.55;;
1677;SDS011;6034;46.864;15.216;2023-05-19T17:09:53;4.97;;;4.53;;
1677;SDS011;6034;46.864;15.216;2023-05-19T17:12:22;4.85;;;4.35;;
1677;SDS011;6034;46.864;15.216;2023-05-19T17:14:50;6.15;;;4.90;;
1677;SDS011;6034;46.864;15.216;2023-05-19T17:17:17;7.55;;;6.20;;
1677;SDS011;6034;46.864;15.216;2023-05-19T17:19:45;7.63;;;4.95;;
1677;SDS011;6034;46.864;15.216;2023-05-19T17:22:13;5.72;;;5.00;;
1677;SDS011;6034;46.864;15.216;2023-05-19T17:24:40;5.93;;;4.82;;
1677;SDS011;6034;46.864;15.216;2023-05-19T17:27:08;7.40;;;4.53;;
1677;SDS011;6034;46.864;15.216;2023-05-19T17:29:37;8.02;;;5.32;;
1677;SDS011;6034;46.864;15.216;2023-05-19T17:32:05;5.40;;;4.90;;
1677;SDS011;6034;46.864;15.216;2023-05-19T17:34:32;5.57;;;4.70;;
1677;SDS011;6034;46.864;15.216;2023-05-19T17:36:59;6.65;;;5.35;;
1677;SDS011;6034;46.864;15.216;2023-05-19T17:39:27;6.32;;;5.07;;
1677;SDS011;6034;46.864;15.216;2023-05-19T17:41:55;7.53;;;5.32;;
1677;SDS011;6034;46.864;15.216;2023-05-19T17:44:22;6.47;;;4.93;;
1677;SDS011;6034;46.864;15.216;2023-05-19T17:46:51;5.20;;;4.70;;
1677;SDS011;6034;46.864;15.216;2023-05-19T17:49:19;8.15;;;5.72;;
1677;SDS011;6034;46.864;15.216;2023-05-19T17:51:48;5.55;;;4.40;;
1677;SDS011;6034;46.864;15.216;2023-05-19T17:54:16;7.22;;;5.90;;
1677;SDS011;6034;46.864;15.216;2023-05-19T17:56:44;7.25;;;5.38;;
1677;SDS011;6034;46.864;15.216;2023-05-19T17:59:12;6.45;;;5.82;;
1677;SDS011;6034;46.864;15.216;2023-05-19T18:01:40;5.82;;;5.32;;
1677;SDS011;6034;46.864;15.216;2023-05-19T18:04:09;6.50;;;5.90;;
1677;SDS011;6034;46.864;15.216;2023-05-19T18:06:37;9.43;;;5.70;;
1677;SDS011;6034;46.864;15.216;2023-05-19T18:09:07;6.80;;;5.82;;
1677;SDS011;6034;46.864;15.216;2023-05-19T18:11:35;7.15;;;6.13;;
1677;SDS011;6034;46.864;15.216;2023-05-19T18:14:02;9.75;;;6.70;;
1677;SDS011;6034;46.864;15.216;2023-05-19T18:16:30;6.93;;;6.22;;
1677;SDS011;6034;46.864;15.216;2023-05-19T18:18:57;9.15;;;6.88;;
1677;SDS011;6034;46.864;15.216;2023-05-19T18:21:27;5.00;;;4.50;;
1677;SDS011;6034;46.864;15.216;2023-05-19T18:23:55;4.85;;;4.45;;
1677;SDS011;6034;46.864;15.216;2023-05-19T18:26:24;5.30;;;4.60;;
1677;SDS011;6034;46.864;15.216;2023-05-19T18:28:52;7.38;;;5.18;;
1677;SDS011;6034;46.864;15.216;2023-05-19T18:31:20;5.68;;;4.00;;
1677;SDS011;6034;46.864;15.216;2023-05-19T18:33:47;5.25;;;4.70;;
1677;SDS011;6034;46.864;15.216;2023-05-19T18:36:15;6.20;;;5.18;;
1677;SDS011;6034;46.864;15.216;2023-05-19T18:38:44;5.22;;;4.72;;
1677;SDS011;6034;46.864;15.216;2023-05-19T18:41:12;5.70;;;4.18;;
1677;SDS011;6034;46.864;15.216;2023-05-19T18:43:39;5.72;;;3.70;;
1677;SDS011;6034;46.864;15.216;2023-05-19T18:46:07;7.40;;;3.95;;
1677;SDS011;6034;46.864;15.216;2023-05-19T18:48:34;4.30;;;3.85;;
1677;SDS011;6034;46.864;15.216;2023-05-19T18:51:02;4.10;;;3.67;;
1677;SDS011;6034;46.864;15.216;2023-05-19T18:53:31;6.05;;;4.07;;
1677;SDS011;6034;46.864;15.216;2023-05-19T18:56:01;4.40;;;4.00;;
1677;SDS011;6034;46.864;15.216;2023-05-19T18:58:29;5.13;;;4.35;;
